sensor_id;sensor_type;location;lat;lon;timestamp;pressure;altitude;pressure_sealevel;temperature;humidity
70302;BME280;57706;56.326;43.882;2022-12-20T00:02:11;101448.31;;;-5.22;76.35
70302;BME280;57706;56.326;43.882;2022-12-20T00:04:37;101447.31;;;-5.15;76.17
70302;BME280;57706;56.326;43.882;2022-12-20T00:07:03;101441.38;;;-5.17;77.17
70302;BME280;57706;56.326;43.882;2022-12-20T00:09:28;101451.19;;;-4.99;76.95
70302;BME280;57706;56.326;43.882;2022-12-20T00:11:54;101440.84;;;-4.94;77.27
70302;BME280;57706;56.326;43.882;2022-12-20T00:14:20;101439.31;;;-4.66;76.86
70302;BME280;57706;56.326;43.882;2022-12-20T00:16:46;101436.75;;;-4.66;78.07
70302;BME280;57706;56.326;43.882;2022-12-20T00:19:12;101442.56;;;-4.60;77.92
70302;BME280;57706;56.326;43.882;2022-12-20T00:21:37;101437.81;;;-4.75;77.76
70302;BME280;57706;56.326;43.882;2022-12-20T00:24:21;101432.75;;;-4.77;78.64
70302;BME280;57706;56.326;43.882;2022-12-20T00:26:47;101436.47;;;-4.90;77.91
70302;BME280;57706;56.326;43.882;2022-12-20T00:29:13;101427.25;;;-4.98;79.28
70302;BME280;57706;56.326;43.882;2022-12-20T00:31:39;101430.00;;;-4.71;80.30
70302;BME280;57706;56.326;43.882;2022-12-20T00:34:07;101431.31;;;-4.54;79.70
70302;BME280;57706;56.326;43.882;2022-12-20T00:36:38;101434.19;;;-4.66;78.65
70302;BME280;57706;56.326;43.882;2022-12-20T00:39:06;101432.59;;;-4.37;79.49
70302;BME280;57706;56.326;43.882;2022-12-20T00:41:33;101430.91;;;-4.38;79.22
70302;BME280;57706;56.326;43.882;2022-12-20T00:43:59;101433.56;;;-4.42;79.26
70302;BME280;57706;56.326;43.882;2022-12-20T00:46:25;101439.34;;;-4.33;79.04
70302;BME280;57706;56.326;43.882;2022-12-20T00:49:10;101440.50;;;-4.45;78.75
70302;BME280;57706;56.326;43.882;2022-12-20T00:51:36;101430.25;;;-4.47;79.62
70302;BME280;57706;56.326;43.882;2022-12-20T00:54:02;101428.81;;;-4.24;80.94
70302;BME280;57706;56.326;43.882;2022-12-20T00:56:28;101426.91;;;-4.16;79.53
70302;BME280;57706;56.326;43.882;2022-12-20T00:58:57;101442.94;;;-4.07;80.91
70302;BME280;57706;56.326;43.882;2022-12-20T01:01:41;101428.00;;;-3.93;80.23
70302;BME280;57706;56.326;43.882;2022-12-20T01:04:26;101424.69;;;-3.98;81.23
70302;BME280;57706;56.326;43.882;2022-12-20T01:06:52;101426.63;;;-4.06;80.54
70302;BME280;57706;56.326;43.882;2022-12-20T01:09:17;101435.06;;;-4.01;80.85
70302;BME280;57706;56.326;43.882;2022-12-20T01:11:43;101429.66;;;-3.92;81.22
70302;BME280;57706;56.326;43.882;2022-12-20T01:14:11;101429.41;;;-3.82;82.03
70302;BME280;57706;56.326;43.882;2022-12-20T01:16:41;101420.41;;;-3.67;82.05
70302;BME280;57706;56.326;43.882;2022-12-20T01:19:08;101428.78;;;-3.61;82.36
70302;BME280;57706;56.326;43.882;2022-12-20T01:21:35;101425.50;;;-3.66;82.12
70302;BME280;57706;56.326;43.882;2022-12-20T01:24:02;101422.50;;;-3.50;82.85
70302;BME280;57706;56.326;43.882;2022-12-20T01:26:47;101417.97;;;-3.42;82.60
70302;BME280;57706;56.326;43.882;2022-12-20T01:29:13;101426.88;;;-3.25;83.46
70302;BME280;57706;56.326;43.882;2022-12-20T01:31:41;101425.09;;;-3.23;82.77
70302;BME280;57706;56.326;43.882;2022-12-20T01:34:07;101425.53;;;-3.09;83.56
70302;BME280;57706;56.326;43.882;2022-12-20T01:36:34;101431.06;;;-2.94;83.32
70302;BME280;57706;56.326;43.882;2022-12-20T01:39:13;101428.59;;;-2.97;82.97
70302;BME280;57706;56.326;43.882;2022-12-20T01:41:58;101421.16;;;-2.80;83.26
70302;BME280;57706;56.326;43.882;2022-12-20T01:46:50;101432.41;;;-2.82;82.09
70302;BME280;57706;56.326;43.882;2022-12-20T01:49:23;101435.66;;;-2.77;82.98
70302;BME280;57706;56.326;43.882;2022-12-20T01:52:14;101438.03;;;-2.71;83.66
70302;BME280;57706;56.326;43.882;2022-12-20T01:54:49;101446.69;;;-2.73;83.96
70302;BME280;57706;56.326;43.882;2022-12-20T01:57:41;101442.91;;;-2.63;83.37
70302;BME280;57706;56.326;43.882;2022-12-20T02:00:09;101441.66;;;-2.77;83.00
70302;BME280;57706;56.326;43.882;2022-12-20T02:02:42;101439.97;;;-2.78;83.71
70302;BME280;57706;56.326;43.882;2022-12-20T02:05:10;101443.56;;;-2.83;83.36
70302;BME280;57706;56.326;43.882;2022-12-20T02:07:37;101448.38;;;-2.72;83.92
70302;BME280;57706;56.326;43.882;2022-12-20T02:10:05;101436.50;;;-2.77;83.47
70302;BME280;57706;56.326;43.882;2022-12-20T02:12:56;101435.41;;;-2.69;84.59
70302;BME280;57706;56.326;43.882;2022-12-20T02:15:48;101438.06;;;-2.72;84.06
70302;BME280;57706;56.326;43.882;2022-12-20T02:34:27;101440.94;;;-2.55;83.21
70302;BME280;57706;56.326;43.882;2022-12-20T02:36:54;101438.44;;;-2.56;83.52
70302;BME280;57706;56.326;43.882;2022-12-20T02:39:21;101442.72;;;-2.57;84.32
70302;BME280;57706;56.326;43.882;2022-12-20T02:41:55;101440.78;;;-2.50;84.57
70302;BME280;57706;56.326;43.882;2022-12-20T02:44:26;101440.59;;;-2.45;84.21
70302;BME280;57706;56.326;43.882;2022-12-20T02:47:16;101443.56;;;-2.56;84.15
70302;BME280;57706;56.326;43.882;2022-12-20T02:49:44;101438.09;;;-2.47;85.43
70302;BME280;57706;56.326;43.882;2022-12-20T02:52:12;101446.06;;;-2.55;84.28
70302;BME280;57706;56.326;43.882;2022-12-20T02:54:39;101448.56;;;-2.52;84.75
70302;BME280;57706;56.326;43.882;2022-12-20T03:00:11;101444.31;;;-2.53;84.87
70302;BME280;57706;56.326;43.882;2022-12-20T03:02:39;101457.38;;;-2.59;84.04
70302;BME280;57706;56.326;43.882;2022-12-20T03:05:25;101451.13;;;-2.52;84.55
70302;BME280;57706;56.326;43.882;2022-12-20T03:07:53;101441.66;;;-2.51;84.49
70302;BME280;57706;56.326;43.882;2022-12-20T03:10:21;101449.84;;;-2.65;84.31
70302;BME280;57706;56.326;43.882;2022-12-20T03:12:47;101453.53;;;-2.72;84.12
70302;BME280;57706;56.326;43.882;2022-12-20T03:15:13;101450.59;;;-2.61;83.01
70302;BME280;57706;56.326;43.882;2022-12-20T03:17:39;101458.06;;;-2.54;83.39
70302;BME280;57706;56.326;43.882;2022-12-20T03:20:06;101454.81;;;-2.59;83.15
70302;BME280;57706;56.326;43.882;2022-12-20T03:22:33;101456.06;;;-2.45;83.21
70302;BME280;57706;56.326;43.882;2022-12-20T03:25:00;101451.06;;;-2.50;82.83
70302;BME280;57706;56.326;43.882;2022-12-20T03:27:31;101447.88;;;-2.57;83.01
70302;BME280;57706;56.326;43.882;2022-12-20T03:29:58;101453.44;;;-2.69;82.69
70302;BME280;57706;56.326;43.882;2022-12-20T03:32:24;101459.09;;;-2.59;82.49
70302;BME280;57706;56.326;43.882;2022-12-20T03:34:50;101449.53;;;-2.56;82.86
70302;BME280;57706;56.326;43.882;2022-12-20T03:37:22;101448.06;;;-2.63;82.20
70302;BME280;57706;56.326;43.882;2022-12-20T03:39:48;101442.91;;;-2.63;82.50
70302;BME280;57706;56.326;43.882;2022-12-20T03:42:14;101442.91;;;-2.63;82.55
70302;BME280;57706;56.326;43.882;2022-12-20T03:44:40;101447.28;;;-2.65;82.49
70302;BME280;57706;56.326;43.882;2022-12-20T03:47:06;101449.03;;;-2.66;82.74
70302;BME280;57706;56.326;43.882;2022-12-20T03:49:34;101459.00;;;-2.83;82.08
70302;BME280;57706;56.326;43.882;2022-12-20T03:52:00;101450.19;;;-2.76;82.46
70302;BME280;57706;56.326;43.882;2022-12-20T03:54:26;101458.97;;;-2.82;82.25
70302;BME280;57706;56.326;43.882;2022-12-20T03:57:18;101447.94;;;-2.85;82.86
70302;BME280;57706;56.326;43.882;2022-12-20T03:59:46;101446.00;;;-2.79;82.83
70302;BME280;57706;56.326;43.882;2022-12-20T04:02:14;101452.25;;;-2.86;82.54
70302;BME280;57706;56.326;43.882;2022-12-20T04:04:41;101445.13;;;-2.78;82.71
70302;BME280;57706;56.326;43.882;2022-12-20T04:07:07;101440.31;;;-2.88;81.13
70302;BME280;57706;56.326;43.882;2022-12-20T04:09:35;101449.09;;;-2.94;80.91
70302;BME280;57706;56.326;43.882;2022-12-20T04:12:07;101445.31;;;-3.11;81.80
70302;BME280;57706;56.326;43.882;2022-12-20T04:14:34;101449.91;;;-2.94;81.00
70302;BME280;57706;56.326;43.882;2022-12-20T04:17:03;101441.28;;;-2.93;81.08
70302;BME280;57706;56.326;43.882;2022-12-20T04:19:29;101446.72;;;-3.02;81.01
70302;BME280;57706;56.326;43.882;2022-12-20T04:21:55;101439.28;;;-3.10;81.27
70302;BME280;57706;56.326;43.882;2022-12-20T04:24:24;101457.03;;;-3.30;81.65
70302;BME280;57706;56.326;43.882;2022-12-20T04:27:11;101446.13;;;-3.39;82.00
70302;BME280;57706;56.326;43.882;2022-12-20T04:29:55;101456.53;;;-3.72;82.88
70302;BME280;57706;56.326;43.882;2022-12-20T04:32:22;101450.66;;;-3.47;84.03
70302;BME280;57706;56.326;43.882;2022-12-20T04:34:48;101451.03;;;-3.60;82.83
70302;BME280;57706;56.326;43.882;2022-12-20T04:37:14;101454.53;;;-3.62;83.36
70302;BME280;57706;56.326;43.882;2022-12-20T04:39:46;101447.72;;;-3.63;83.70
70302;BME280;57706;56.326;43.882;2022-12-20T04:42:20;101452.41;;;-3.78;83.20
70302;BME280;57706;56.326;43.882;2022-12-20T04:44:46;101456.16;;;-3.90;82.49
70302;BME280;57706;56.326;43.882;2022-12-20T04:47:15;101458.00;;;-3.95;83.55
70302;BME280;57706;56.326;43.882;2022-12-20T04:49:59;101460.75;;;-4.01;83.27
70302;BME280;57706;56.326;43.882;2022-12-20T04:52:25;101454.09;;;-4.08;83.64
70302;BME280;57706;56.326;43.882;2022-12-20T04:55:10;101460.28;;;-4.16;83.26
70302;BME280;57706;56.326;43.882;2022-12-20T04:57:36;101452.59;;;-4.17;83.05
70302;BME280;57706;56.326;43.882;2022-12-20T05:00:04;101448.38;;;-4.20;84.28
70302;BME280;57706;56.326;43.882;2022-12-20T05:02:48;101446.59;;;-4.49;82.53
70302;BME280;57706;56.326;43.882;2022-12-20T05:05:17;101456.16;;;-4.56;83.08
70302;BME280;57706;56.326;43.882;2022-12-20T05:07:48;101451.81;;;-4.54;83.83
70302;BME280;57706;56.326;43.882;2022-12-20T05:10:33;101457.06;;;-4.57;82.12
70302;BME280;57706;56.326;43.882;2022-12-20T05:13:01;101455.13;;;-4.49;82.51
70302;BME280;57706;56.326;43.882;2022-12-20T05:15:35;101459.53;;;-4.54;81.86
70302;BME280;57706;56.326;43.882;2022-12-20T05:18:02;101468.25;;;-4.61;82.53
70302;BME280;57706;56.326;43.882;2022-12-20T05:20:37;101463.66;;;-4.83;81.19
70302;BME280;57706;56.326;43.882;2022-12-20T05:23:04;101468.13;;;-4.91;81.78
70302;BME280;57706;56.326;43.882;2022-12-20T05:25:52;101461.16;;;-4.86;81.41
70302;BME280;57706;56.326;43.882;2022-12-20T05:28:37;101469.31;;;-4.68;81.99
70302;BME280;57706;56.326;43.882;2022-12-20T05:31:03;101465.63;;;-4.58;82.40
70302;BME280;57706;56.326;43.882;2022-12-20T05:33:32;101470.81;;;-4.61;82.06
70302;BME280;57706;56.326;43.882;2022-12-20T05:35:58;101465.63;;;-4.58;80.42
70302;BME280;57706;56.326;43.882;2022-12-20T05:38:24;101464.78;;;-4.59;80.73
70302;BME280;57706;56.326;43.882;2022-12-20T05:40:50;101471.34;;;-4.47;80.63
70302;BME280;57706;56.326;43.882;2022-12-20T05:43:17;101475.53;;;-4.43;80.49
70302;BME280;57706;56.326;43.882;2022-12-20T05:45:49;101469.16;;;-4.29;80.89
70302;BME280;57706;56.326;43.882;2022-12-20T05:48:19;101469.00;;;-4.21;80.30
70302;BME280;57706;56.326;43.882;2022-12-20T05:50:46;101472.16;;;-3.80;80.14
70302;BME280;57706;56.326;43.882;2022-12-20T05:53:32;101470.63;;;-3.85;80.08
70302;BME280;57706;56.326;43.882;2022-12-20T05:56:01;101467.72;;;-4.06;77.45
70302;BME280;57706;56.326;43.882;2022-12-20T05:58:33;101477.06;;;-4.02;79.48
70302;BME280;57706;56.326;43.882;2022-12-20T06:01:04;101477.63;;;-3.92;79.46
70302;BME280;57706;56.326;43.882;2022-12-20T06:03:35;101478.94;;;-3.77;80.75
70302;BME280;57706;56.326;43.882;2022-12-20T06:06:19;101472.03;;;-3.75;80.21
70302;BME280;57706;56.326;43.882;2022-12-20T06:08:47;101479.94;;;-3.83;78.64
70302;BME280;57706;56.326;43.882;2022-12-20T06:11:32;101482.38;;;-3.78;77.59
70302;BME280;57706;56.326;43.882;2022-12-20T06:14:07;101478.59;;;-3.96;77.57
70302;BME280;57706;56.326;43.882;2022-12-20T06:16:37;101484.22;;;-3.82;79.73
70302;BME280;57706;56.326;43.882;2022-12-20T06:19:04;101486.44;;;-3.69;78.46
70302;BME280;57706;56.326;43.882;2022-12-20T06:21:31;101476.50;;;-3.82;78.27
70302;BME280;57706;56.326;43.882;2022-12-20T06:23:57;101473.72;;;-3.74;79.67
70302;BME280;57706;56.326;43.882;2022-12-20T06:26:23;101467.53;;;-3.67;78.37
70302;BME280;57706;56.326;43.882;2022-12-20T06:28:49;101474.31;;;-3.64;78.13
70302;BME280;57706;56.326;43.882;2022-12-20T06:31:39;101479.28;;;-3.90;78.07
70302;BME280;57706;56.326;43.882;2022-12-20T06:34:05;101486.66;;;-3.77;78.15
70302;BME280;57706;56.326;43.882;2022-12-20T06:36:36;101486.09;;;-3.89;76.99
70302;BME280;57706;56.326;43.882;2022-12-20T06:39:02;101477.50;;;-3.88;76.95
70302;BME280;57706;56.326;43.882;2022-12-20T06:41:28;101475.63;;;-3.81;77.00
70302;BME280;57706;56.326;43.882;2022-12-20T06:43:54;101471.78;;;-3.66;76.83
70302;BME280;57706;56.326;43.882;2022-12-20T06:46:21;101468.75;;;-3.80;78.00
70302;BME280;57706;56.326;43.882;2022-12-20T06:48:47;101463.59;;;-3.49;75.79
70302;BME280;57706;56.326;43.882;2022-12-20T06:51:13;101451.75;;;-3.84;77.00
70302;BME280;57706;56.326;43.882;2022-12-20T06:53:39;101456.84;;;-3.53;76.75
70302;BME280;57706;56.326;43.882;2022-12-20T06:56:05;101453.84;;;-3.39;77.43
70302;BME280;57706;56.326;43.882;2022-12-20T06:58:31;101454.13;;;-3.48;77.50
70302;BME280;57706;56.326;43.882;2022-12-20T07:00:57;101450.75;;;-3.50;75.39
70302;BME280;57706;56.326;43.882;2022-12-20T07:03:23;101452.44;;;-3.49;76.76
70302;BME280;57706;56.326;43.882;2022-12-20T07:05:52;101450.16;;;-3.58;76.55
70302;BME280;57706;56.326;43.882;2022-12-20T07:08:19;101455.72;;;-3.44;78.55
70302;BME280;57706;56.326;43.882;2022-12-20T07:10:45;101460.63;;;-3.36;76.95
70302;BME280;57706;56.326;43.882;2022-12-20T07:13:11;101454.59;;;-3.35;75.45
70302;BME280;57706;56.326;43.882;2022-12-20T07:15:37;101446.56;;;-3.24;77.08
70302;BME280;57706;56.326;43.882;2022-12-20T07:18:03;101449.56;;;-3.10;76.93
70302;BME280;57706;56.326;43.882;2022-12-20T07:20:29;101448.97;;;-3.18;76.11
70302;BME280;57706;56.326;43.882;2022-12-20T07:22:55;101439.63;;;-3.22;76.13
70302;BME280;57706;56.326;43.882;2022-12-20T07:25:21;101437.84;;;-3.20;75.78
70302;BME280;57706;56.326;43.882;2022-12-20T07:27:48;101440.31;;;-3.15;74.81
70302;BME280;57706;56.326;43.882;2022-12-20T07:30:15;101445.63;;;-2.93;77.52
70302;BME280;57706;56.326;43.882;2022-12-20T07:32:41;101442.91;;;-2.63;75.09
70302;BME280;57706;56.326;43.882;2022-12-20T07:35:08;101450.94;;;-2.72;75.72
70302;BME280;57706;56.326;43.882;2022-12-20T07:37:35;101439.38;;;-2.59;77.17
70302;BME280;57706;56.326;43.882;2022-12-20T07:40:01;101436.09;;;-2.64;75.12
70302;BME280;57706;56.326;43.882;2022-12-20T07:42:29;101435.91;;;-2.58;74.42
70302;BME280;57706;56.326;43.882;2022-12-20T07:44:55;101431.13;;;-2.43;74.15
70302;BME280;57706;56.326;43.882;2022-12-20T07:47:21;101421.94;;;-2.51;75.78
70302;BME280;57706;56.326;43.882;2022-12-20T07:49:47;101419.72;;;-2.61;75.02
70302;BME280;57706;56.326;43.882;2022-12-20T07:52:16;101424.97;;;-2.39;75.76
70302;BME280;57706;56.326;43.882;2022-12-20T07:54:46;101417.66;;;-2.52;73.13
70302;BME280;57706;56.326;43.882;2022-12-20T07:57:41;101402.88;;;-2.46;74.74
70302;BME280;57706;56.326;43.882;2022-12-20T08:00:10;101411.94;;;-2.60;75.55
70302;BME280;57706;56.326;43.882;2022-12-20T08:02:48;101414.34;;;-2.30;76.81
70302;BME280;57706;56.326;43.882;2022-12-20T08:05:16;101410.78;;;-2.26;76.37
70302;BME280;57706;56.326;43.882;2022-12-20T08:07:43;101402.84;;;-2.19;75.85
70302;BME280;57706;56.326;43.882;2022-12-20T08:10:13;101400.00;;;-2.37;74.80
70302;BME280;57706;56.326;43.882;2022-12-20T08:12:40;101405.28;;;-2.16;76.77
70302;BME280;57706;56.326;43.882;2022-12-20T08:15:08;101405.72;;;-2.29;76.74
70302;BME280;57706;56.326;43.882;2022-12-20T08:17:34;101395.41;;;-2.29;75.09
70302;BME280;57706;56.326;43.882;2022-12-20T08:20:00;101395.31;;;-2.26;76.43
70302;BME280;57706;56.326;43.882;2022-12-20T08:22:26;101395.56;;;-2.33;75.96
70302;BME280;57706;56.326;43.882;2022-12-20T08:24:52;101402.25;;;-2.28;77.14
70302;BME280;57706;56.326;43.882;2022-12-20T08:27:17;101405.50;;;-2.23;76.98
70302;BME280;57706;56.326;43.882;2022-12-20T08:29:43;101400.81;;;-2.11;75.75
70302;BME280;57706;56.326;43.882;2022-12-20T08:32:09;101404.03;;;-2.30;75.07
70302;BME280;57706;56.326;43.882;2022-12-20T08:34:37;101396.16;;;-2.25;76.97
70302;BME280;57706;56.326;43.882;2022-12-20T08:37:02;101399.41;;;-2.20;76.34
70302;BME280;57706;56.326;43.882;2022-12-20T08:39:28;101390.22;;;-2.03;75.68
70302;BME280;57706;56.326;43.882;2022-12-20T08:41:54;101395.44;;;-2.05;75.42
70302;BME280;57706;56.326;43.882;2022-12-20T08:44:20;101401.63;;;-2.35;76.69
70302;BME280;57706;56.326;43.882;2022-12-20T08:46:46;101392.25;;;-2.37;76.54
70302;BME280;57706;56.326;43.882;2022-12-20T08:49:11;101393.97;;;-2.12;76.82
70302;BME280;57706;56.326;43.882;2022-12-20T08:51:38;101378.19;;;-2.27;76.39
70302;BME280;57706;56.326;43.882;2022-12-20T08:54:04;101378.41;;;-2.09;75.78
70302;BME280;57706;56.326;43.882;2022-12-20T08:56:30;101371.47;;;-2.07;76.70
70302;BME280;57706;56.326;43.882;2022-12-20T08:58:56;101370.69;;;-2.09;76.58
70302;BME280;57706;56.326;43.882;2022-12-20T09:01:22;101368.06;;;-2.08;77.05
70302;BME280;57706;56.326;43.882;2022-12-20T09:03:48;101366.09;;;-2.25;78.21
70302;BME280;57706;56.326;43.882;2022-12-20T09:06:16;101357.47;;;-2.24;77.76
70302;BME280;57706;56.326;43.882;2022-12-20T09:08:43;101363.69;;;-2.05;77.12
70302;BME280;57706;56.326;43.882;2022-12-20T09:11:21;101353.41;;;-1.83;77.02
70302;BME280;57706;56.326;43.882;2022-12-20T09:13:49;101352.25;;;-1.98;76.73
70302;BME280;57706;56.326;43.882;2022-12-20T09:16:17;101353.94;;;-1.97;77.95
70302;BME280;57706;56.326;43.882;2022-12-20T09:18:50;101353.09;;;-1.98;77.57
70302;BME280;57706;56.326;43.882;2022-12-20T09:21:17;101346.56;;;-1.84;77.77
70302;BME280;57706;56.326;43.882;2022-12-20T09:23:43;101352.31;;;-2.00;77.39
70302;BME280;57706;56.326;43.882;2022-12-20T09:26:11;101342.94;;;-2.02;78.04
70302;BME280;57706;56.326;43.882;2022-12-20T09:28:38;101342.53;;;-2.14;78.29
70302;BME280;57706;56.326;43.882;2022-12-20T09:31:06;101339.16;;;-2.16;77.44
70302;BME280;57706;56.326;43.882;2022-12-20T09:33:33;101343.13;;;-2.07;78.09
70302;BME280;57706;56.326;43.882;2022-12-20T09:36:01;101326.50;;;-1.98;78.61
70302;BME280;57706;56.326;43.882;2022-12-20T09:38:27;101331.22;;;-1.87;78.50
70302;BME280;57706;56.326;43.882;2022-12-20T09:40:59;101334.06;;;-1.94;78.35
70302;BME280;57706;56.326;43.882;2022-12-20T09:43:45;101325.19;;;-1.86;78.71
70302;BME280;57706;56.326;43.882;2022-12-20T09:46:13;101321.00;;;-1.67;79.34
70302;BME280;57706;56.326;43.882;2022-12-20T09:48:41;101325.66;;;-1.54;78.86
70302;BME280;57706;56.326;43.882;2022-12-20T09:56:43;101312.31;;;-1.86;78.63
70302;BME280;57706;56.326;43.882;2022-12-20T09:59:17;101309.53;;;-1.59;80.21
70302;BME280;57706;56.326;43.882;2022-12-20T10:01:46;101312.81;;;-1.33;77.54
70302;BME280;57706;56.326;43.882;2022-12-20T10:04:30;101301.19;;;-1.44;76.98
70302;BME280;57706;56.326;43.882;2022-12-20T10:23:20;101278.16;;;-1.48;79.26
70302;BME280;57706;56.326;43.882;2022-12-20T10:25:50;101274.72;;;-1.70;79.04
70302;BME280;57706;56.326;43.882;2022-12-20T10:28:19;101271.53;;;-1.33;79.43
70302;BME280;57706;56.326;43.882;2022-12-20T10:31:12;101266.03;;;-1.46;80.29
70302;BME280;57706;56.326;43.882;2022-12-20T10:33:39;101274.44;;;-1.41;80.03
70302;BME280;57706;56.326;43.882;2022-12-20T10:36:27;101265.09;;;-1.44;79.43
70302;BME280;57706;56.326;43.882;2022-12-20T10:38:56;101260.94;;;-1.69;78.63
70302;BME280;57706;56.326;43.882;2022-12-20T10:41:25;101254.78;;;-1.44;79.03
70302;BME280;57706;56.326;43.882;2022-12-20T10:44:02;101258.97;;;-1.41;79.96
70302;BME280;57706;56.326;43.882;2022-12-20T10:46:38;101257.59;;;-1.29;78.44
70302;BME280;57706;56.326;43.882;2022-12-20T10:51:55;101247.22;;;-1.71;79.56
70302;BME280;57706;56.326;43.882;2022-12-20T10:54:24;101234.31;;;-1.28;80.69
70302;BME280;57706;56.326;43.882;2022-12-20T10:57:25;101232.19;;;-1.59;78.29
70302;BME280;57706;56.326;43.882;2022-12-20T10:59:57;101226.13;;;-1.58;79.43
70302;BME280;57706;56.326;43.882;2022-12-20T11:02:34;101221.88;;;-1.59;80.71
70302;BME280;57706;56.326;43.882;2022-12-20T11:05:23;101225.03;;;-1.53;80.06
70302;BME280;57706;56.326;43.882;2022-12-20T11:07:55;101222.41;;;-1.51;79.77
70302;BME280;57706;56.326;43.882;2022-12-20T11:10:27;101225.97;;;-1.76;79.67
70302;BME280;57706;56.326;43.882;2022-12-20T11:12:59;101224.31;;;-1.77;80.51
70302;BME280;57706;56.326;43.882;2022-12-20T11:15:31;101224.41;;;-1.58;81.65
70302;BME280;57706;56.326;43.882;2022-12-20T11:21:07;101214.00;;;-1.56;80.85
70302;BME280;57706;56.326;43.882;2022-12-20T11:31:56;101201.78;;;-2.16;82.93
70302;BME280;57706;56.326;43.882;2022-12-20T11:37:18;101189.22;;;-2.24;82.59
70302;BME280;57706;56.326;43.882;2022-12-20T11:53:26;101165.50;;;-1.89;83.88
70302;BME280;57706;56.326;43.882;2022-12-20T11:56:00;101162.41;;;-1.98;83.47
70302;BME280;57706;56.326;43.882;2022-12-20T11:58:49;101166.69;;;-1.76;83.81
70302;BME280;57706;56.326;43.882;2022-12-20T12:01:23;101169.84;;;-2.12;82.82
70302;BME280;57706;56.326;43.882;2022-12-20T12:04:06;101168.84;;;-1.87;83.58
70302;BME280;57706;56.326;43.882;2022-12-20T12:06:39;101161.34;;;-2.14;82.91
70302;BME280;57706;56.326;43.882;2022-12-20T12:11:50;101163.38;;;-2.23;82.94
70302;BME280;57706;56.326;43.882;2022-12-20T12:17:32;101150.34;;;-2.40;83.96
70302;BME280;57706;56.326;43.882;2022-12-20T12:22:45;101154.41;;;-2.35;83.53
70302;BME280;57706;56.326;43.882;2022-12-20T12:25:15;101154.13;;;-2.27;84.91
70302;BME280;57706;56.326;43.882;2022-12-20T12:27:42;101147.91;;;-2.00;82.71
70302;BME280;57706;56.326;43.882;2022-12-20T12:30:13;101149.75;;;-2.04;83.53
70302;BME280;57706;56.326;43.882;2022-12-20T12:32:51;101152.25;;;-2.01;82.58
70302;BME280;57706;56.326;43.882;2022-12-20T12:39:29;101138.78;;;-2.30;83.28
70302;BME280;57706;56.326;43.882;2022-12-20T12:41:42;101142.44;;;-2.36;83.30
70302;BME280;57706;56.326;43.882;2022-12-20T12:46:58;101133.06;;;-1.94;83.17
70302;BME280;57706;56.326;43.882;2022-12-20T12:49:28;101141.31;;;-1.85;82.26
70302;BME280;57706;56.326;43.882;2022-12-20T12:51:58;101130.34;;;-2.11;82.37
70302;BME280;57706;56.326;43.882;2022-12-20T12:54:37;101134.09;;;-1.77;81.90
70302;BME280;57706;56.326;43.882;2022-12-20T12:57:22;101136.16;;;-1.85;82.17
70302;BME280;57706;56.326;43.882;2022-12-20T12:59:49;101127.75;;;-1.90;83.28
70302;BME280;57706;56.326;43.882;2022-12-20T13:07:41;101125.94;;;-2.09;81.58
70302;BME280;57706;56.326;43.882;2022-12-20T13:17:56;101114.06;;;-2.13;80.91
70302;BME280;57706;56.326;43.882;2022-12-20T13:20:26;101119.56;;;-2.21;81.66
70302;BME280;57706;56.326;43.882;2022-12-20T13:25:46;101108.00;;;-2.33;83.07
70302;BME280;57706;56.326;43.882;2022-12-20T13:30:45;101102.44;;;-2.44;82.31
70302;BME280;57706;56.326;43.882;2022-12-20T13:36:29;101100.50;;;-2.39;81.11
70302;BME280;57706;56.326;43.882;2022-12-20T13:38:53;101101.94;;;-2.32;81.21
70302;BME280;57706;56.326;43.882;2022-12-20T13:44:02;101100.75;;;-2.45;80.50
70302;BME280;57706;56.326;43.882;2022-12-20T13:49:38;101084.41;;;-2.67;80.94
70302;BME280;57706;56.326;43.882;2022-12-20T13:54:39;101083.63;;;-2.46;79.98
70302;BME280;57706;56.326;43.882;2022-12-20T13:57:06;101080.53;;;-2.55;80.02
70302;BME280;57706;56.326;43.882;2022-12-20T13:59:33;101080.66;;;-2.58;80.44
70302;BME280;57706;56.326;43.882;2022-12-20T14:02:00;101082.69;;;-2.66;80.60
70302;BME280;57706;56.326;43.882;2022-12-20T14:04:41;101077.00;;;-2.74;81.36
70302;BME280;57706;56.326;43.882;2022-12-20T14:07:13;101065.69;;;-2.70;81.63
70302;BME280;57706;56.326;43.882;2022-12-20T14:09:44;101067.25;;;-2.66;80.52
70302;BME280;57706;56.326;43.882;2022-12-20T14:12:15;101060.44;;;-2.67;81.18
70302;BME280;57706;56.326;43.882;2022-12-20T14:14:59;101069.25;;;-2.30;80.84
70302;BME280;57706;56.326;43.882;2022-12-20T14:17:28;101071.28;;;-2.38;80.10
70302;BME280;57706;56.326;43.882;2022-12-20T14:30:48;101066.94;;;-2.36;81.00
70302;BME280;57706;56.326;43.882;2022-12-20T14:33:37;101061.13;;;-2.41;80.39
70302;BME280;57706;56.326;43.882;2022-12-20T14:36:18;101055.97;;;-2.41;79.67
70302;BME280;57706;56.326;43.882;2022-12-20T14:38:49;101055.97;;;-2.41;78.84
70302;BME280;57706;56.326;43.882;2022-12-20T14:44:17;101060.91;;;-2.57;80.42
70302;BME280;57706;56.326;43.882;2022-12-20T14:46:49;101052.16;;;-2.53;79.88
70302;BME280;57706;56.326;43.882;2022-12-20T14:49:37;101060.88;;;-2.35;78.76
70302;BME280;57706;56.326;43.882;2022-12-20T14:54:54;101062.22;;;-2.69;79.55
70302;BME280;57706;56.326;43.882;2022-12-20T14:57:30;101048.88;;;-2.79;80.35
70302;BME280;57706;56.326;43.882;2022-12-20T15:02:38;101047.88;;;-2.32;79.53
70302;BME280;57706;56.326;43.882;2022-12-20T15:05:33;101035.63;;;-2.47;78.52
70302;BME280;57706;56.326;43.882;2022-12-20T15:07:54;101036.84;;;-2.56;79.99
70302;BME280;57706;56.326;43.882;2022-12-20T15:10:20;101036.72;;;-2.53;79.44
70302;BME280;57706;56.326;43.882;2022-12-20T15:12:46;101032.88;;;-2.65;79.17
70302;BME280;57706;56.326;43.882;2022-12-20T15:15:13;101030.50;;;-2.70;79.65
70302;BME280;57706;56.326;43.882;2022-12-20T15:17:40;101029.16;;;-2.58;80.60